createdAt,value
2023-03-07T00:00:55.120Z,78.80
2023-03-07T00:03:24.131Z,78.60
2023-03-07T00:06:02.147Z,78.30
2023-03-07T00:08:31.628Z,78.10
2023-03-07T00:11:03.261Z,77.90
2023-03-07T00:13:33.276Z,77.80
2023-03-07T00:16:05.761Z,77.80
2023-03-07T00:18:36.056Z,77.60
2023-03-07T00:21:09.572Z,77.50
2023-03-07T00:23:40.354Z,77.50
2023-03-07T00:26:12.066Z,77.40
2023-03-07T00:28:42.468Z,77.20
2023-03-07T00:31:13.113Z,77.20
2023-03-07T00:33:42.436Z,77.20
2023-03-07T00:36:14.128Z,77.00
2023-03-07T00:38:43.382Z,77.10
2023-03-07T00:41:14.623Z,77.10
2023-03-07T00:43:43.604Z,77.20
2023-03-07T00:46:14.610Z,77.20
2023-03-07T00:48:43.869Z,77.20
2023-03-07T00:51:15.925Z,77.20
2023-03-07T00:53:45.273Z,77.30
2023-03-07T00:56:16.712Z,77.40
2023-03-07T00:58:47.665Z,77.40
2023-03-07T01:01:20.562Z,77.50
2023-03-07T01:03:53.443Z,77.50
2023-03-07T01:06:24.668Z,77.50
2023-03-07T01:08:57.948Z,77.40
2023-03-07T01:11:28.699Z,77.50
2023-03-07T01:13:58.527Z,77.50
2023-03-07T01:16:31.198Z,77.40
2023-03-07T01:19:02.206Z,77.50
2023-03-07T01:21:31.924Z,77.50
2023-03-07T01:24:04.384Z,77.50
2023-03-07T01:26:34.746Z,77.40
2023-03-07T01:29:05.767Z,77.50
2023-03-07T01:31:38.804Z,77.50
2023-03-07T01:34:08.055Z,77.50
2023-03-07T01:36:38.776Z,77.60
2023-03-07T01:39:13.146Z,77.60
2023-03-07T01:41:47.563Z,77.60
2023-03-07T01:44:19.858Z,77.60
2023-03-07T01:46:55.340Z,77.50
2023-03-07T01:49:31.443Z,77.50
2023-03-07T01:52:06.851Z,77.40
2023-03-07T01:54:41.690Z,77.40
2023-03-07T01:57:11.242Z,77.50
2023-03-07T01:59:44.939Z,77.50
2023-03-07T02:02:19.745Z,77.50
2023-03-07T02:04:53.743Z,77.60
2023-03-07T02:07:26.816Z,77.50
2023-03-07T02:09:58.353Z,77.50
2023-03-07T02:12:27.554Z,77.50
2023-03-07T02:14:57.166Z,77.60
2023-03-07T02:17:28.128Z,77.60
2023-03-07T02:20:11.393Z,77.60
2023-03-07T02:22:41.466Z,77.60
2023-03-07T02:25:19.667Z,77.80
2023-03-07T02:27:53.170Z,77.70
2023-03-07T02:30:24.251Z,77.50
2023-03-07T02:32:54.769Z,77.50
2023-03-07T02:35:25.709Z,77.40
2023-03-07T02:38:02.813Z,77.40
2023-03-07T02:40:33.832Z,77.30
2023-03-07T02:43:09.599Z,77.20
2023-03-07T02:45:41.034Z,77.20
2023-03-07T02:48:10.046Z,77.20
2023-03-07T02:50:39.106Z,77.00
2023-03-07T02:53:08.178Z,76.80
2023-03-07T02:55:37.184Z,76.60
2023-03-07T02:58:09.309Z,76.50
2023-03-07T03:00:38.327Z,76.30
2023-03-07T03:03:07.694Z,76.30
2023-03-07T03:05:36.762Z,76.20
2023-03-07T03:08:06.182Z,76.00
2023-03-07T03:10:35.233Z,76.10
2023-03-07T03:13:04.369Z,76.00
2023-03-07T03:15:34.961Z,76.00
2023-03-07T03:18:04.201Z,75.90
2023-03-07T03:20:33.241Z,75.80
2023-03-07T03:23:02.286Z,75.80
2023-03-07T03:25:31.540Z,75.80
2023-03-07T03:28:00.785Z,75.80
2023-03-07T03:30:33.546Z,75.70
2023-03-07T03:33:04.976Z,75.80
2023-03-07T03:35:34.763Z,75.90
2023-03-07T03:38:04.377Z,75.80
2023-03-07T03:40:33.450Z,75.80
2023-03-07T03:43:02.526Z,75.80
2023-03-07T03:45:31.560Z,75.80
2023-03-07T03:48:01.281Z,75.80
2023-03-07T03:50:31.881Z,75.80
2023-03-07T03:53:01.390Z,75.80
2023-03-07T03:55:30.486Z,75.90
2023-03-07T03:58:00.472Z,75.80
2023-03-07T04:00:29.644Z,75.80
2023-03-07T04:02:58.972Z,75.60
2023-03-07T04:05:28.200Z,75.70
2023-03-07T04:07:58.570Z,75.80
2023-03-07T04:10:27.855Z,75.70
2023-03-07T04:12:56.923Z,75.80
2023-03-07T04:15:26.081Z,75.70
2023-03-07T04:17:55.171Z,75.70
2023-03-07T04:20:24.165Z,75.60
2023-03-07T04:22:53.480Z,75.60
2023-03-07T04:25:23.903Z,75.70
2023-03-07T04:27:53.108Z,75.60
2023-03-07T04:30:22.510Z,75.70
2023-03-07T04:32:51.597Z,75.60
2023-03-07T04:35:20.718Z,75.80
2023-03-07T04:37:50.665Z,75.70
2023-03-07T04:40:20.084Z,75.70
2023-03-07T04:42:50.505Z,75.70
2023-03-07T04:45:21.233Z,75.70
2023-03-07T04:47:50.362Z,75.70
2023-03-07T04:50:19.783Z,75.70
2023-03-07T04:52:50.522Z,75.80
2023-03-07T04:55:20.034Z,75.80
2023-03-07T04:57:52.106Z,75.80
2023-03-07T05:00:22.056Z,75.70
2023-03-07T05:02:52.214Z,75.80
2023-03-07T05:05:21.572Z,75.90
2023-03-07T05:07:51.573Z,75.90
2023-03-07T05:10:20.756Z,76.00
2023-03-07T05:12:51.450Z,76.00
2023-03-07T05:15:20.693Z,76.20
2023-03-07T05:17:49.910Z,76.30
2023-03-07T05:20:20.178Z,76.50
2023-03-07T05:22:49.201Z,76.50
2023-03-07T05:25:18.877Z,76.40
2023-03-07T05:27:48.297Z,76.30
2023-03-07T05:30:18.845Z,76.40
2023-03-07T05:32:47.907Z,76.40
2023-03-07T05:35:17.914Z,76.50
2023-03-07T05:37:48.196Z,76.60
2023-03-07T05:40:17.554Z,76.60
2023-03-07T05:42:49.137Z,76.60
2023-03-07T05:45:21.318Z,76.60
2023-03-07T05:47:51.393Z,76.60
2023-03-07T05:50:21.133Z,76.60
2023-03-07T05:52:50.661Z,76.60
2023-03-07T05:55:19.911Z,76.50
2023-03-07T05:57:49.167Z,76.50
2023-03-07T06:00:21.008Z,76.50
2023-03-07T06:02:56.242Z,76.60
2023-03-07T06:05:25.852Z,76.60
2023-03-07T06:07:55.620Z,76.60
2023-03-07T06:10:25.817Z,76.60
2023-03-07T06:12:56.037Z,76.60
2023-03-07T06:15:26.493Z,76.60
2023-03-07T06:18:02.368Z,76.60
2023-03-07T06:20:31.836Z,76.60
2023-03-07T06:23:02.190Z,76.50
2023-03-07T06:25:31.674Z,76.30
2023-03-07T06:28:01.557Z,76.40
2023-03-07T06:30:36.570Z,76.40
2023-03-07T06:33:06.038Z,76.50
2023-03-07T06:35:35.573Z,76.60
2023-03-07T06:38:04.719Z,77.40
2023-03-07T06:40:33.849Z,76.60
2023-03-07T06:43:03.561Z,76.60
2023-03-07T06:45:34.605Z,76.60
2023-03-07T06:48:03.832Z,76.80
2023-03-07T06:50:35.409Z,76.80
2023-03-07T06:53:06.334Z,76.80
2023-03-07T06:55:35.718Z,77.00
2023-03-07T06:58:05.162Z,77.00
2023-03-07T07:00:35.733Z,77.10
2023-03-07T07:03:05.266Z,77.10
2023-03-07T07:05:34.362Z,77.10
2023-03-07T07:08:03.464Z,77.00
2023-03-07T07:10:32.556Z,77.00
2023-03-07T07:13:01.725Z,77.00
2023-03-07T07:15:30.894Z,77.00
2023-03-07T07:18:01.488Z,77.00
2023-03-07T07:20:30.565Z,76.90
2023-03-07T07:22:59.621Z,77.00
2023-03-07T07:25:28.693Z,77.00
2023-03-07T07:27:57.792Z,77.10
2023-03-07T07:30:27.118Z,77.10
2023-03-07T07:32:56.348Z,77.20
2023-03-07T07:35:27.008Z,77.20
2023-03-07T07:37:57.088Z,77.20
2023-03-07T07:40:26.158Z,77.10
2023-03-07T07:42:55.450Z,77.10
2023-03-07T07:45:33.844Z,77.10
2023-03-07T07:48:03.071Z,77.10
2023-03-07T07:50:33.548Z,77.10
2023-03-07T07:53:02.748Z,78.10
2023-03-07T07:55:32.148Z,77.10
2023-03-07T07:58:01.310Z,77.20
2023-03-07T08:00:30.778Z,77.30
2023-03-07T08:03:01.088Z,77.30
2023-03-07T08:05:30.235Z,77.30
2023-03-07T08:08:00.715Z,77.40
2023-03-07T08:10:29.719Z,77.50
2023-03-07T08:12:58.883Z,77.50
2023-03-07T08:15:27.985Z,77.50
2023-03-07T08:17:56.997Z,77.40
2023-03-07T08:20:26.109Z,77.20
2023-03-07T08:22:55.154Z,77.20
2023-03-07T08:25:26.287Z,77.00
2023-03-07T08:27:55.531Z,76.70
2023-03-07T08:30:26.505Z,76.50
2023-03-07T08:32:56.985Z,76.50
2023-03-07T08:35:27.705Z,76.40
2023-03-07T08:37:58.253Z,76.40
2023-03-07T08:40:29.063Z,76.50
2023-03-07T08:42:59.518Z,76.40
2023-03-07T08:45:28.629Z,76.30
2023-03-07T08:47:58.487Z,76.30
2023-03-07T08:50:29.284Z,76.30
2023-03-07T08:52:58.952Z,76.30
2023-03-07T08:55:29.358Z,76.40
2023-03-07T08:57:58.395Z,76.40
2023-03-07T09:00:27.604Z,76.40
2023-03-07T09:02:58.463Z,76.30
2023-03-07T09:05:27.470Z,76.30
2023-03-07T09:07:56.544Z,76.40
2023-03-07T09:10:27.462Z,76.30
2023-03-07T09:12:58.616Z,76.50
2023-03-07T09:15:28.239Z,76.60
2023-03-07T09:17:57.205Z,76.60
2023-03-07T09:20:26.337Z,76.60
2023-03-07T09:22:55.397Z,76.60
2023-03-07T09:25:24.705Z,76.50
2023-03-07T09:27:55.125Z,76.20
2023-03-07T09:30:28.241Z,75.80
2023-03-07T09:32:58.127Z,75.80
2023-03-07T09:35:27.133Z,75.80
2023-03-07T09:37:56.175Z,75.90
2023-03-07T09:40:28.141Z,75.90
2023-03-07T09:43:07.751Z,75.60
2023-03-07T09:45:46.460Z,75.40
2023-03-07T09:48:54.393Z,75.50
2023-03-07T09:51:26.988Z,75.30
2023-03-07T09:53:59.039Z,75.20
2023-03-07T09:56:34.008Z,75.00
2023-03-07T09:59:22.004Z,74.90
2023-03-07T10:02:02.276Z,74.50
2023-03-07T10:04:41.362Z,74.40
2023-03-07T10:07:13.792Z,74.10
2023-03-07T10:09:43.448Z,74.30
2023-03-07T10:12:34.098Z,74.40
2023-03-07T10:15:18.332Z,74.00
2023-03-07T10:18:03.718Z,73.50
2023-03-07T10:20:40.396Z,73.40
2023-03-07T10:23:26.185Z,73.40
2023-03-07T10:25:58.196Z,74.00
2023-03-07T10:28:29.669Z,72.60
2023-03-07T10:31:02.582Z,72.70
2023-03-07T10:33:33.246Z,72.50
2023-03-07T10:36:08.456Z,72.40
2023-03-07T10:38:44.742Z,71.70
2023-03-07T10:41:16.633Z,71.60
2023-03-07T10:43:46.770Z,71.40
2023-03-07T10:46:26.871Z,71.20
2023-03-07T10:49:10.972Z,71.00
2023-03-07T10:51:51.677Z,70.80
2023-03-07T10:54:27.229Z,70.70
2023-03-07T10:57:09.015Z,70.40
2023-03-07T10:59:40.106Z,70.10
2023-03-07T11:02:35.578Z,70.00
2023-03-07T11:05:29.011Z,69.90
2023-03-07T11:07:58.522Z,69.00
2023-03-07T11:10:34.233Z,69.40
2023-03-07T11:13:15.335Z,69.40
2023-03-07T11:15:45.799Z,68.80
2023-03-07T11:18:29.112Z,68.90
2023-03-07T11:21:00.165Z,68.80
2023-03-07T11:23:31.611Z,69.00
2023-03-07T11:26:16.415Z,68.30
2023-03-07T11:28:45.629Z,68.30
2023-03-07T11:31:22.143Z,68.50
2023-03-07T11:33:59.566Z,68.60
2023-03-07T11:36:33.532Z,68.70
2023-03-07T11:39:08.362Z,68.70
2023-03-07T11:41:38.728Z,68.20
2023-03-07T11:44:27.113Z,68.00
2023-03-07T11:47:26.082Z,67.60
2023-03-07T11:50:12.179Z,66.90
2023-03-07T11:53:03.193Z,66.90
2023-03-07T11:55:38.539Z,66.70
2023-03-07T11:58:27.165Z,66.50
2023-03-07T12:01:18.163Z,66.40
2023-03-07T12:04:12.088Z,65.90
2023-03-07T12:06:49.165Z,65.60
2023-03-07T12:09:30.033Z,65.80
2023-03-07T12:12:19.312Z,65.80
2023-03-07T12:14:56.583Z,65.70
2023-03-07T12:17:45.219Z,65.50
2023-03-07T12:20:27.195Z,65.30
2023-03-07T12:23:19.903Z,65.00
2023-03-07T12:25:54.165Z,64.70
2023-03-07T12:28:27.849Z,64.30
2023-03-07T12:31:08.495Z,64.70
2023-03-07T12:34:04.018Z,65.00
2023-03-07T12:36:39.582Z,64.80
2023-03-07T12:39:20.075Z,64.50
2023-03-07T12:42:00.772Z,64.60
2023-03-07T12:44:43.270Z,64.90
2023-03-07T12:47:21.124Z,64.90
2023-03-07T12:49:56.804Z,64.90
2023-03-07T12:52:43.371Z,64.60
2023-03-07T12:55:24.263Z,64.20
2023-03-07T12:58:04.493Z,64.10
2023-03-07T13:00:36.841Z,64.10
2023-03-07T13:03:07.564Z,63.90
2023-03-07T13:05:38.388Z,63.80
2023-03-07T13:08:09.064Z,63.50
2023-03-07T13:10:38.548Z,63.60
2023-03-07T13:13:50.107Z,63.10
2023-03-07T13:16:37.481Z,62.60
2023-03-07T13:19:52.426Z,62.60
2023-03-07T13:22:57.711Z,62.30
2023-03-07T13:25:51.900Z,62.00
2023-03-07T13:28:44.488Z,61.90
2023-03-07T13:31:30.816Z,61.50
2023-03-07T13:34:41.538Z,61.50
2023-03-07T13:37:50.545Z,61.20
2023-03-07T13:40:46.462Z,61.10
2023-03-07T13:43:58.304Z,61.10
2023-03-07T13:46:49.447Z,60.60
2023-03-07T13:49:44.818Z,60.50
2023-03-07T13:52:32.897Z,60.40
2023-03-07T13:55:04.810Z,60.30
2023-03-07T13:57:41.859Z,60.60
2023-03-07T14:00:33.352Z,60.70
2023-03-07T14:03:03.868Z,60.70
2023-03-07T14:05:35.588Z,60.90
2023-03-07T14:08:05.189Z,60.80
2023-03-07T14:10:35.150Z,60.80
2023-03-07T14:13:50.994Z,60.70
2023-03-07T14:16:32.393Z,60.50
2023-03-07T14:19:20.549Z,60.60
2023-03-07T14:21:56.725Z,60.60
2023-03-07T14:24:46.384Z,60.60
2023-03-07T14:27:16.862Z,60.80
2023-03-07T14:29:51.038Z,60.90
2023-03-07T14:32:24.541Z,61.00
2023-03-07T14:34:55.118Z,61.10
2023-03-07T14:37:26.509Z,61.10
2023-03-07T14:40:10.912Z,61.30
2023-03-07T14:42:46.865Z,61.30
2023-03-07T14:45:25.082Z,61.40
2023-03-07T14:48:16.391Z,61.60
2023-03-07T14:50:46.973Z,61.40
2023-03-07T14:53:21.853Z,61.30
2023-03-07T14:55:54.068Z,61.10
2023-03-07T14:58:25.317Z,61.10
2023-03-07T15:01:00.718Z,60.70
2023-03-07T15:03:30.091Z,60.70
2023-03-07T15:06:02.866Z,60.70
2023-03-07T15:08:35.265Z,60.50
2023-03-07T15:11:08.872Z,60.50
2023-03-07T15:13:45.690Z,60.50
2023-03-07T15:16:20.977Z,60.40
2023-03-07T15:18:53.442Z,60.10
2023-03-07T15:21:28.241Z,59.90
2023-03-07T15:23:59.596Z,60.00
2023-03-07T15:26:30.380Z,60.00
2023-03-07T15:29:01.470Z,59.90
2023-03-07T15:31:31.897Z,59.90
2023-03-07T15:34:21.818Z,60.00
2023-03-07T15:36:52.515Z,60.00
2023-03-07T15:39:34.772Z,60.00
2023-03-07T15:42:06.564Z,60.00
2023-03-07T15:44:36.477Z,60.00
2023-03-07T15:47:15.200Z,60.00
2023-03-07T15:49:48.473Z,59.70
2023-03-07T15:52:34.796Z,59.00
2023-03-07T15:55:08.182Z,58.90
2023-03-07T15:57:40.855Z,58.90
2023-03-07T16:00:19.048Z,58.90
2023-03-07T16:02:48.781Z,58.90
2023-03-07T16:05:38.249Z,58.90
2023-03-07T16:08:14.251Z,59.00
2023-03-07T16:10:49.121Z,59.00
2023-03-07T16:13:21.320Z,59.10
2023-03-07T16:16:04.688Z,59.30
2023-03-07T16:18:34.901Z,59.60
2023-03-07T16:21:03.984Z,59.90
2023-03-07T16:23:35.094Z,60.10
2023-03-07T16:26:06.135Z,60.20
2023-03-07T16:28:35.624Z,60.20
2023-03-07T16:31:04.798Z,60.10
2023-03-07T16:33:33.865Z,60.00
2023-03-07T16:36:02.894Z,60.10
2023-03-07T16:38:33.289Z,60.00
2023-03-07T16:41:04.481Z,60.00
2023-03-07T16:43:34.235Z,59.70
2023-03-07T16:46:05.431Z,59.80
2023-03-07T16:48:35.132Z,59.60
2023-03-07T16:51:06.156Z,59.60
2023-03-07T16:53:36.584Z,59.60
2023-03-07T16:56:05.746Z,59.60
2023-03-07T16:58:36.588Z,59.50
2023-03-07T17:01:06.542Z,59.60
2023-03-07T17:03:35.553Z,59.40
2023-03-07T17:06:04.717Z,59.40
2023-03-07T17:08:33.757Z,59.40
2023-03-07T17:11:04.265Z,59.30
2023-03-07T17:13:33.995Z,59.20
2023-03-07T17:16:03.249Z,59.00
2023-03-07T17:18:33.964Z,58.90
2023-03-07T17:21:03.777Z,58.60
2023-03-07T17:23:32.778Z,58.60
2023-03-07T17:26:03.266Z,58.60
2023-03-07T17:28:32.307Z,58.70
2023-03-07T17:31:01.589Z,58.60
2023-03-07T17:33:30.640Z,58.60
2023-03-07T17:36:00.995Z,58.50
2023-03-07T17:38:30.130Z,58.40
2023-03-07T17:40:59.159Z,58.20
2023-03-07T17:43:29.779Z,58.20
2023-03-07T17:45:58.907Z,58.00
2023-03-07T17:48:28.099Z,58.10
2023-03-07T17:50:57.180Z,58.20
2023-03-07T17:53:26.307Z,58.20
2023-03-07T17:55:55.366Z,58.30
2023-03-07T17:58:24.445Z,58.40
2023-03-07T18:00:54.915Z,58.50
2023-03-07T18:03:23.908Z,58.70
2023-03-07T18:05:52.989Z,58.80
2023-03-07T18:08:22.112Z,59.10
2023-03-07T18:10:51.199Z,59.10
2023-03-07T18:13:21.856Z,59.30
2023-03-07T18:15:50.940Z,59.50
2023-03-07T18:18:21.344Z,59.80
2023-03-07T18:20:58.831Z,60.20
2023-03-07T18:23:28.765Z,60.60
2023-03-07T18:25:58.756Z,60.90
2023-03-07T18:28:28.760Z,61.40
2023-03-07T18:31:01.516Z,61.80
2023-03-07T18:33:33.109Z,62.10
2023-03-07T18:36:03.686Z,62.40
2023-03-07T18:38:33.236Z,62.70
2023-03-07T18:41:07.269Z,63.00
2023-03-07T18:43:36.627Z,63.30
2023-03-07T18:46:06.237Z,63.50
2023-03-07T18:48:37.103Z,63.70
2023-03-07T18:51:07.983Z,63.90
2023-03-07T18:53:37.971Z,64.20
2023-03-07T18:56:09.235Z,64.20
2023-03-07T18:58:39.124Z,64.40
2023-03-07T19:01:13.328Z,64.50
2023-03-07T19:03:44.661Z,64.80
2023-03-07T19:06:14.484Z,65.10
2023-03-07T19:08:43.648Z,65.30
2023-03-07T19:11:14.586Z,65.60
2023-03-07T19:13:44.345Z,65.60
2023-03-07T19:16:16.007Z,65.90
2023-03-07T19:18:47.143Z,66.10
2023-03-07T19:21:19.151Z,66.30
2023-03-07T19:23:49.747Z,66.50
2023-03-07T19:26:20.034Z,66.60
2023-03-07T19:28:50.986Z,66.70
2023-03-07T19:31:22.814Z,66.90
2023-03-07T19:33:54.017Z,66.80
2023-03-07T19:36:26.184Z,66.90
2023-03-07T19:38:59.089Z,67.10
2023-03-07T19:41:30.311Z,67.00
2023-03-07T19:43:59.756Z,67.20
2023-03-07T19:46:29.476Z,67.30
2023-03-07T19:49:00.128Z,67.30
2023-03-07T19:51:29.119Z,67.40
2023-03-07T19:54:00.207Z,67.60
2023-03-07T19:56:31.866Z,67.80
2023-03-07T19:59:03.030Z,67.90
2023-03-07T20:01:31.913Z,68.10
2023-03-07T20:04:04.900Z,68.20
2023-03-07T20:06:34.987Z,68.10
2023-03-07T20:09:04.282Z,68.20
2023-03-07T20:11:35.010Z,68.40
2023-03-07T20:14:06.059Z,68.50
2023-03-07T20:16:35.881Z,68.70
2023-03-07T20:19:10.079Z,68.80
2023-03-07T20:21:40.369Z,68.90
2023-03-07T20:24:10.253Z,68.80
2023-03-07T20:26:40.774Z,69.00
2023-03-07T20:29:13.173Z,69.00
2023-03-07T20:31:42.324Z,69.10
2023-03-07T20:34:13.201Z,69.10
2023-03-07T20:36:43.519Z,69.20
2023-03-07T20:39:14.669Z,69.30
2023-03-07T20:41:45.223Z,69.40
2023-03-07T20:44:16.188Z,69.60
2023-03-07T20:46:45.347Z,69.80
2023-03-07T20:49:16.813Z,69.80
2023-03-07T20:51:45.880Z,69.80
2023-03-07T20:54:17.792Z,69.90
2023-03-07T20:56:48.572Z,70.00
2023-03-07T20:59:19.158Z,70.00
2023-03-07T21:01:48.921Z,70.00
2023-03-07T21:04:21.111Z,70.00
2023-03-07T21:06:50.701Z,70.00
2023-03-07T21:09:20.578Z,70.10
2023-03-07T21:11:51.220Z,70.10
2023-03-07T21:14:21.407Z,70.10
2023-03-07T21:16:50.452Z,70.20
2023-03-07T21:19:21.161Z,70.20
2023-03-07T21:21:50.310Z,70.30
2023-03-07T21:24:19.281Z,70.30
2023-03-07T21:26:48.452Z,70.50
2023-03-07T21:29:17.504Z,70.60
2023-03-07T21:31:46.637Z,70.70
2023-03-07T21:34:15.842Z,70.80
2023-03-07T21:36:47.994Z,70.70
2023-03-07T21:39:17.010Z,70.80
2023-03-07T21:41:48.933Z,70.80
2023-03-07T21:44:18.142Z,70.90
2023-03-07T21:46:47.306Z,71.00
2023-03-07T21:49:17.796Z,71.00
2023-03-07T21:51:48.289Z,71.10
2023-03-07T21:54:17.487Z,71.10
2023-03-07T21:56:46.577Z,71.20
2023-03-07T21:59:15.645Z,71.20
2023-03-07T22:01:44.709Z,71.30
2023-03-07T22:04:13.866Z,71.30
2023-03-07T22:06:42.903Z,71.30
2023-03-07T22:09:13.453Z,71.30
2023-03-07T22:11:42.447Z,71.50
2023-03-07T22:14:11.471Z,71.60
2023-03-07T22:16:40.573Z,71.60
2023-03-07T22:19:09.572Z,71.60
2023-03-07T22:21:38.585Z,71.60
2023-03-07T22:24:07.736Z,71.60
2023-03-07T22:26:38.491Z,71.60
2023-03-07T22:29:07.607Z,71.70
2023-03-07T22:31:36.725Z,71.70
2023-03-07T22:34:05.857Z,71.80
2023-03-07T22:36:35.007Z,71.70
2023-03-07T22:39:04.340Z,71.70
2023-03-07T22:41:34.449Z,71.70
2023-03-07T22:44:04.944Z,71.60
2023-03-07T22:46:33.959Z,71.60
2023-03-07T22:49:02.946Z,71.30
2023-03-07T22:51:31.987Z,71.20
2023-03-07T22:54:01.067Z,71.00
2023-03-07T22:56:30.107Z,70.30
2023-03-07T22:58:59.308Z,69.30
2023-03-07T23:01:30.369Z,68.60
2023-03-07T23:04:01.037Z,68.00
2023-03-07T23:06:32.177Z,67.50
2023-03-07T23:09:02.033Z,67.00
2023-03-07T23:11:32.702Z,66.70
2023-03-07T23:14:02.123Z,66.20
2023-03-07T23:16:36.292Z,65.50
2023-03-07T23:19:05.431Z,65.60
2023-03-07T23:21:35.046Z,65.40
2023-03-07T23:24:05.171Z,65.60
2023-03-07T23:26:35.582Z,65.20
2023-03-07T23:29:05.102Z,64.90
2023-03-07T23:31:37.960Z,64.70
2023-03-07T23:34:09.299Z,64.50
2023-03-07T23:36:38.277Z,65.00
2023-03-07T23:39:08.453Z,64.50
2023-03-07T23:41:37.517Z,64.40
2023-03-07T23:44:06.985Z,64.30
2023-03-07T23:46:37.385Z,64.30
2023-03-07T23:49:06.938Z,64.10
2023-03-07T23:51:35.935Z,63.90
2023-03-07T23:54:05.174Z,63.80
2023-03-07T23:56:34.314Z,63.90
2023-03-07T23:59:03.577Z,63.90
